Latest Coastal Weather Observations for Ulladulla

IDN60701

Issued at 1:11 am EDT Saturday 13 February 2016 (issued every 10 minutes, with the page automatically refreshed every 10 minutes)

About coastal observations | Map of coastal stations | Coastal observations for NSW | Marine services | Other Formats
Station Details ID: 069138 Name: ULLADULLA AWS Lat: -35.36 Lon: 150.48 Height: 35.7 m
Data from the previous 72 hours. | See also: Recent months at Ulladulla
Date/Time
EDT
Temp

°C
Wind Pressure Rain
since 9am
mm
Weather Cloud Vis
km
Sea
Height
m
Swell
Dir
 
Speed
knots
Gust
knots
hPa Trend Height
m
Period
s
Dir
13/01:00am 22.1 N 7 10 1014.0 - 0.0 - - - - - - -
13/12:30am 22.7 N 8 12 1014.1 - 0.0 - - - - - - -
13/12:00am 23.0 N 7 13 1014.1 - 0.0 - - - - - - -
 
Date/Time
EDT
Temp

°C
Wind Pressure Rain
since 9am
mm
Weather Cloud Vis
km
Sea
Height
m
Swell
Dir
 
Speed
knots
Gust
knots
hPa Trend Height
m
Period
s
Dir
12/11:30pm 23.1 N 10 15 1014.3 - 0.0 - - - - - - -
12/11:00pm 23.2 N 5 10 1014.7 - 0.0 - - - - - - -
12/10:30pm 23.2 N 4 6 1014.9 - 0.0 - - - - - - -
12/10:00pm 23.2 N 5 9 1015.0 - 0.0 - - - - - - -
12/09:30pm 23.4 N 6 10 1015.0 - 0.0 - - - - - - -
12/09:00pm 23.4 NNW 3 6 1014.8 - 0.0 - - - - - - -
12/08:30pm 23.2 NNE 3 6 1014.5 - 0.0 - - - - - - -
12/08:00pm 23.2 NE 7 12 1014.4 - 0.0 - - - - - - -
12/07:30pm 23.3 NE 8 13 1014.4 - 0.0 - - - - - - -
12/07:00pm 23.4 NNE 12 15 1013.8 - 0.0 - - - - - - -
12/06:30pm 23.6 NNE 9 14 1013.5 - 0.0 - - - - - - -
12/06:00pm 23.6 NE 8 12 1013.6 - 0.0 - - - - - - -
12/05:30pm 23.8 NE 8 12 1013.8 - 0.0 - - - - - - -
12/05:00pm 24.0 NE 8 13 1013.7 - 0.0 - - - - - - -
12/04:30pm 24.7 NE 9 13 1013.6 - 0.0 - - - - - - -
12/04:00pm 24.6 NE 10 15 1013.7 - 0.0 - - - - - - -
12/03:30pm 24.9 NE 8 14 1014.2 - 0.0 - - - - - - -
12/03:00pm 25.1 NE 7 11 1014.5 - 0.0 - - - - - - -
12/02:30pm 24.9 NE 9 14 1014.8 - 0.0 - - - - - - -
12/02:00pm 25.0 NE 7 12 1015.2 - 0.0 - - - - - - -
12/01:30pm 25.4 ENE 7 10 1015.4 - 0.0 - - - - - - -
12/01:00pm 25.3 ENE 7 10 1015.7 - 0.0 - - - - - - -
12/12:30pm 24.7 ENE 6 11 1015.9 - 0.0 - - - - - - -
12/12:00pm 25.3 E 5 8 1016.3 - 0.0 - - - - - - -
12/11:30am 24.5 E 4 7 1016.6 - 0.0 - - - - - - -
12/11:00am 24.9 E 3 5 1016.7 - 0.0 - - - - - - -
12/10:30am 24.3 SSE 3 5 1016.9 - 0.0 - - - - - - -
12/10:00am 24.6 NW 2 5 1016.9 - 0.0 - - - - - - -
12/09:30am 23.9 NNE 2 3 1016.8 - 0.0 - - - - - - -
12/09:00am 23.8 SSE 1 3 1016.9 - 0.0 - - - - - - -
12/08:30am 23.1 S 2 2 1016.8 - 0.0 - - - - - - -
12/08:00am 22.5 SW 2 3 1016.7 - 0.0 - - - - - - -
12/07:30am 21.2 CALM 0 1 1016.4 - 0.0 - - - - - - -
12/07:00am 20.1 CALM 0 0 1016.1 - 0.0 - - - - - - -
12/06:30am 20.1 SW 2 3 1015.9 - 0.0 - - - - - - -
12/06:00am 20.7 CALM 0 2 1015.5 - 0.0 - - - - - - -
12/05:30am 20.8 CALM 0 0 1015.3 - 0.0 - - - - - - -
12/05:00am 20.7 CALM 0 0 1014.9 - 0.0 - - - - - - -
12/04:30am 21.1 SW 1 2 1014.9 - 0.0 - - - - - - -
12/04:00am 20.8 CALM 0 0 1015.1 - 0.0 - - - - - - -
12/03:30am 20.6 CALM 0 0 1015.1 - 0.0 - - - - - - -
12/03:00am 20.5 SW 1 2 1015.2 - 0.0 - - - - - - -
12/02:30am 20.5 SW 2 3 1015.5 - 0.0 - - - - - - -
12/02:00am 20.4 W 3 4 1015.5 - 0.0 - - - - - - -
12/01:30am 20.7 CALM 0 0 1015.8 - 0.0 - - - - - - -
12/01:00am 21.2 CALM 0 1 1016.0 - 0.0 - - - - - - -
12/12:30am 21.4 CALM 0 0 1016.1 - 0.0 - - - - - - -
12/12:00am 21.7 N 1 3 1016.2 - 0.0 - - - - - - -
 
Date/Time
EDT
Temp

°C
Wind Pressure Rain
since 9am
mm
Weather Cloud Vis
km
Sea
Height
m
Swell
Dir
 
Speed
knots
Gust
knots
hPa Trend Height
m
Period
s
Dir
11/11:30pm 21.9 N 1 2 1016.5 - 0.0 - - - - - - -
11/11:00pm 22.0 CALM 0 0 1016.9 - 0.0 - - - - - - -
11/10:30pm 22.3 CALM 0 0 1016.8 - 0.0 - - - - - - -
11/10:00pm 22.5 CALM 0 1 1016.7 - 0.0 - - - - - - -
11/09:30pm 22.7 N 2 5 1016.3 - 0.0 - - - - - - -
11/09:00pm 22.7 N 1 3 1015.8 - 0.0 - - - - - - -
11/08:30pm 22.9 NNE 3 6 1015.5 - 0.0 - - - - - - -
11/08:00pm 23.0 NNE 4 8 1015.3 - 0.0 - - - - - - -
11/07:30pm 23.1 NE 10 15 1014.8 - 0.0 - - - - - - -
11/07:00pm 23.1 NNE 7 10 1014.9 - 0.0 - - - - - - -
11/06:30pm 23.2 NNE 5 8 1014.6 - 0.0 - - - - - - -
11/06:00pm 23.7 NNE 5 8 1014.6 - 0.0 - - - - - - -
11/05:30pm 24.1 NE 6 9 1014.5 - 0.0 - - - - - - -
11/05:00pm 24.8 NE 5 9 1014.2 - 0.0 - - - - - - -
11/04:30pm 25.1 E 5 9 1014.2 - 0.0 - - - - - - -
11/04:00pm 25.3 E 5 9 1014.2 - 0.0 - - - - - - -
11/03:30pm 25.0 ENE 6 9 1014.4 - 0.0 - - - - - - -
11/03:00pm 25.1 NE 5 10 1014.8 - 0.0 - - - - - - -
11/02:30pm 24.6 NE 8 11 1014.9 - 0.0 - - - - - - -
11/02:00pm 25.1 ENE 7 10 1015.1 - 0.0 - - - - - - -
11/01:30pm 25.1 ENE 6 11 1015.2 - 0.0 - - - - - - -
11/01:00pm 25.5 E 5 8 1015.2 - 0.0 - - - - - - -
11/12:30pm 24.9 E 6 9 1015.4 - 0.0 - - - - - - -
11/12:00pm 24.6 ESE 5 8 1015.6 - 0.0 - - - - - - -
11/11:30am 24.3 ENE 5 7 1015.8 - 0.0 - - - - - - -
11/11:00am 24.1 NNE 4 5 1015.8 - 0.0 - - - - - - -
11/10:30am 23.9 NE 4 6 1015.7 - 0.0 - - - - - - -
11/10:00am 23.1 NNE 4 5 1015.6 - 0.0 - - - - - - -
11/09:30am 23.0 NNE 3 5 1015.6 - 0.0 - - - - - - -
11/09:00am 22.9 NW 3 5 1015.6 - 0.0 - - - - - - -
11/08:30am 22.6 W 1 3 1015.4 - 0.0 - - - - - - -
11/08:00am 21.9 CALM 0 1 1015.2 - 0.0 - - - - - - -
11/07:30am 21.3 CALM 0 0 1014.8 - 0.0 - - - - - - -
11/07:00am 20.6 CALM 0 0 1014.4 - 0.0 - - - - - - -
11/06:30am 20.5 WSW 1 2 1013.9 - 0.0 - - - - - - -
11/06:00am 20.3 WSW 2 3 1013.6 - 0.0 - - - - - - -
11/05:30am 20.1 CALM 0 0 1013.4 - 0.0 - - - - - - -
11/05:00am 20.4 CALM 0 0 1013.1 - 0.0 - - - - - - -
11/04:30am 20.5 WSW 1 2 1012.9 - 0.0 - - - - - - -
11/04:00am 20.8 WSW 3 4 1013.0 - 0.0 - - - - - - -
11/03:30am 21.0 CALM 0 2 1012.9 - 0.0 - - - - - - -
11/03:00am 21.2 SSW 2 3 1013.2 - 0.0 - - - - - - -
11/02:30am 21.2 SSW 3 3 1013.4 - 0.0 - - - - - - -
11/02:00am 21.3 SSW 2 3 1013.5 - 0.0 - - - - - - -
11/01:30am 21.4 S 2 3 1013.7 - 0.0 - - - - - - -
11/01:00am 21.4 WSW 3 4 1013.8 - 0.0 - - - - - - -
11/12:30am 21.4 WSW 2 3 1014.0 - 0.0 - - - - - - -
11/12:00am 21.6 SW 3 5 1014.2 - 0.0 - - - - - - -
 
Date/Time
EDT
Temp

°C
Wind Pressure Rain
since 9am
mm
Weather Cloud Vis
km
Sea
Height
m
Swell
Dir
 
Speed
knots
Gust
knots
hPa Trend Height
m
Period
s
Dir
10/11:30pm 21.6 WSW 3 5 1014.2 - 0.0 - - - - - - -
10/11:00pm 21.9 NNW 2 3 1014.3 - 0.0 - - - - - - -
10/10:30pm 22.5 NNE 2 5 1014.2 - 0.0 - - - - - - -
10/10:00pm 22.8 NNE 2 5 1014.1 - 0.0 - - - - - - -
10/09:30pm 22.9 NNE 4 10 1013.7 - 0.0 - - - - - - -
10/09:00pm 23.1 NNE 4 10 1013.3 - 0.0 - - - - - - -
10/08:30pm 23.1 NE 6 11 1012.6 - 0.0 - - - - - - -
10/08:00pm 23.3 NE 8 15 1012.5 - 0.0 - - - - - - -
10/07:30pm 23.2 NE 7 12 1012.1 - 0.0 - - - - - - -
10/07:00pm 23.4 NE 9 13 1011.5 - 0.0 - - - - - - -
10/06:30pm 24.0 NNE 6 10 1011.0 - 0.0 - - - - - - -
10/06:00pm 24.1 NE 9 15 1010.4 - 0.0 - - - - - - -
10/05:30pm 24.5 NE 9 15 1010.4 - 0.0 - - - - - - -
10/05:00pm 24.6 NE 11 17 1010.3 - 0.0 - - - - - - -
10/04:30pm 24.9 NE 11 16 1010.4 - 0.0 - - - - - - -
10/04:00pm 25.2 NNE 8 14 1010.6 - 0.0 - - - - - - -
10/03:30pm 24.9 NE 13 18 1010.7 - 0.0 - - - - - - -
10/03:00pm 25.1 NE 14 18 1010.9 - 0.0 - - - - - - -
10/02:30pm 25.1 NNE 14 19 1011.2 - 0.0 - - - - - - -
10/02:00pm 25.0 NNE 13 17 1011.6 - 0.0 - - - - - - -
10/01:30pm 25.1 NNE 10 14 1011.9 - 0.0 - - - - - - -
10/01:00pm 25.1 NNE 8 13 1012.2 - 0.0 - - - - - - -
10/12:30pm 24.5 NNE 10 15 1012.6 - 0.0 - - - - - - -
10/12:00pm 24.3 NE 14 17 1013.0 - 0.0 - - - - - - -
10/11:30am 23.8 NE 14 18 1013.5 - 0.0 - - - - - - -
10/11:00am 23.3 NE 14 18 1013.9 - 0.0 - - - - - - -
10/10:30am 23.5 NE 9 15 1014.2 - 0.0 - - - - - - -
10/10:00am 24.3 NNE 4 8 1014.6 - 0.0 - - - - - - -
10/09:30am 23.3 N 6 11 1014.6 - 0.0 - - - - - - -
10/09:00am 21.9 N 8 11 1015.1 - 0.0 - - - - - - -
10/08:30am 20.5 N 6 10 1015.0 - 0.0 - - - - - - -
10/08:00am 19.9 N 4 5 1015.0 - 0.0 - - - - - - -
10/07:30am 18.9 N 2 3 1015.0 - 0.0 - - - - - - -
10/07:00am 18.4 NNW 3 6 1014.8 - 0.0 - - - - - - -
10/06:30am 18.4 N 4 6 1014.7 - 0.0 - - - - - - -
10/06:00am 18.6 N 3 5 1014.7 - 0.0 - - - - - - -
10/05:30am 18.5 N 4 7 1014.8 - 0.0 - - - - - - -
10/05:00am 18.1 N 4 6 1014.9 - 0.0 - - - - - - -
10/04:30am 18.4 N 3 4 1015.0 - 0.0 - - - - - - -
10/04:00am 18.4 N 3 5 1015.1 - 0.0 - - - - - - -
10/03:30am 18.4 N 3 5 1015.4 - 0.0 - - - - - - -
10/03:00am 18.1 NNW 2 3 1015.8 - 0.0 - - - - - - -
10/02:30am 18.3 NNW 3 4 1016.2 - 0.0 - - - - - - -
10/02:00am 18.3 NNW 3 5 1016.6 - 0.0 - - - - - - -
10/01:30am 18.2 NNW 3 4 1016.9 - 0.0 - - - - - - -

Other Formats:

Comma delimited format used in spreadsheet applications
http://www.bom.gov.au/fwo/IDN60701/IDN60701.94938.axf

JavaScript Object Notation format (JSON) in row-major order
http://www.bom.gov.au/fwo/IDN60701/IDN60701.94938.json